createdAt,value
2022-12-09T00:03:09.255Z,14.83
2022-12-09T00:13:13.998Z,15.83
2022-12-09T00:23:17.205Z,16.03
2022-12-09T00:33:21.592Z,16.20
2022-12-09T00:43:24.908Z,15.77
2022-12-09T00:53:29.379Z,15.93
2022-12-09T01:03:32.746Z,18.27
2022-12-09T01:13:37.863Z,15.83
2022-12-09T01:23:41.170Z,16.33
2022-12-09T01:33:46.369Z,15.73
2022-12-09T01:44:11.151Z,16.03
2022-12-09T01:54:16.130Z,14.00
2022-12-09T02:04:19.776Z,15.37
2022-12-09T02:14:28.559Z,17.23
2022-12-09T02:24:37.949Z,15.63
2022-12-09T02:34:46.123Z,16.90
2022-12-09T02:44:51.489Z,16.50
2022-12-09T02:54:56.668Z,15.70
2022-12-09T03:05:11.309Z,15.80
2022-12-09T03:15:18.811Z,16.40
2022-12-09T03:25:24.864Z,16.93
2022-12-09T03:35:35.160Z,16.97
2022-12-09T03:45:39.766Z,16.60
2022-12-09T03:55:51.716Z,16.30
2022-12-09T04:05:54.776Z,15.93
2022-12-09T04:15:59.350Z,16.03
2022-12-09T04:26:02.668Z,15.73
2022-12-09T04:36:10.239Z,14.57
2022-12-09T04:46:16.411Z,15.43
2022-12-09T04:56:22.261Z,14.47
2022-12-09T05:06:25.907Z,13.90
2022-12-09T05:16:30.577Z,12.47
2022-12-09T05:26:34.470Z,12.00
2022-12-09T05:36:39.353Z,12.37
2022-12-09T05:46:42.843Z,13.60
2022-12-09T05:56:48.797Z,14.70
2022-12-09T06:06:52.602Z,14.30
2022-12-09T06:16:57.321Z,14.93
2022-12-09T06:27:00.807Z,14.03
2022-12-09T06:37:05.299Z,15.53
2022-12-09T06:47:08.634Z,15.23
2022-12-09T06:57:13.828Z,16.43
2022-12-09T07:07:16.993Z,15.80
2022-12-09T07:17:22.402Z,16.33
2022-12-09T07:27:25.724Z,16.67
2022-12-09T07:37:30.450Z,16.30
2022-12-09T07:47:33.648Z,16.33
2022-12-09T07:57:38.871Z,15.47
2022-12-09T08:07:44.567Z,15.50
2022-12-09T08:17:49.585Z,15.47
2022-12-09T08:27:52.946Z,14.67
2022-12-09T08:37:57.690Z,15.40
2022-12-09T08:48:01.233Z,15.47
2022-12-09T08:58:05.801Z,15.90
2022-12-09T09:08:09.023Z,14.67
2022-12-09T09:18:14.149Z,14.77
2022-12-09T09:28:17.489Z,13.80
2022-12-09T09:38:21.997Z,12.93
2022-12-09T09:48:29.687Z,13.97
2022-12-09T09:58:43.521Z,14.03
2022-12-09T10:08:56.111Z,13.03
2022-12-09T10:19:09.327Z,14.23
2022-12-09T10:29:21.314Z,15.50
2022-12-09T10:39:26.110Z,14.33
2022-12-09T10:49:29.678Z,15.50
2022-12-09T10:59:35.479Z,14.63
2022-12-09T11:09:41.640Z,13.87
2022-12-09T11:19:48.965Z,14.23
2022-12-09T11:30:12.735Z,15.03
2022-12-09T11:40:20.704Z,15.37
2022-12-09T11:50:31.194Z,13.97
2022-12-09T12:00:42.956Z,15.23
2022-12-09T12:10:51.072Z,15.13
2022-12-09T12:21:16.991Z,16.40
2022-12-09T12:31:31.336Z,15.20
2022-12-09T12:41:43.017Z,15.43
2022-12-09T12:51:59.110Z,14.23
2022-12-09T13:02:10.406Z,15.00
2022-12-09T13:12:17.972Z,15.80
2022-12-09T13:22:25.507Z,15.37
2022-12-09T13:32:56.107Z,13.93
2022-12-09T13:43:18.716Z,15.23
2022-12-09T13:53:27.040Z,14.00
2022-12-09T14:03:34.905Z,13.73
2022-12-09T14:13:38.030Z,14.77
2022-12-09T14:24:21.188Z,13.97
2022-12-09T14:34:33.298Z,14.10
2022-12-09T14:44:41.693Z,14.30
2022-12-09T14:54:48.934Z,15.47
2022-12-09T15:04:53.243Z,14.93
2022-12-09T15:15:01.048Z,15.07
2022-12-09T15:25:04.578Z,15.70
2022-12-09T15:35:19.395Z,15.23
2022-12-09T15:45:24.722Z,16.10
2022-12-09T15:55:37.384Z,18.07
2022-12-09T16:05:42.198Z,17.30
2022-12-09T16:15:53.561Z,18.70
2022-12-09T16:26:06.323Z,19.57
2022-12-09T16:36:21.162Z,19.27
2022-12-09T16:46:39.701Z,18.43
2022-12-09T16:56:44.163Z,17.63
2022-12-09T17:06:47.291Z,17.57
2022-12-09T17:16:52.158Z,18.23
2022-12-09T17:26:55.212Z,21.23
2022-12-09T17:36:59.670Z,17.10
2022-12-09T17:47:02.797Z,18.70
2022-12-09T17:57:07.275Z,18.03
2022-12-09T18:07:10.303Z,18.87
2022-12-09T18:17:14.723Z,17.67
2022-12-09T18:27:17.846Z,22.20
2022-12-09T18:37:24.520Z,19.97
2022-12-09T18:47:27.631Z,18.53
2022-12-09T18:57:32.091Z,16.87
2022-12-09T19:07:35.144Z,16.63
2022-12-09T19:17:40.373Z,17.90
2022-12-09T19:27:44.621Z,17.93
2022-12-09T19:37:49.524Z,18.43
2022-12-09T19:47:52.676Z,18.87
2022-12-09T19:57:57.559Z,18.20
2022-12-09T20:08:00.704Z,17.80
2022-12-09T20:18:05.380Z,17.30
2022-12-09T20:28:09.348Z,16.97
2022-12-09T20:38:16.953Z,17.80
2022-12-09T20:48:19.985Z,16.50
2022-12-09T20:58:24.414Z,17.10
2022-12-09T21:08:31.434Z,16.67
2022-12-09T21:18:37.691Z,17.77
2022-12-09T21:28:42.135Z,18.67
2022-12-09T21:38:46.939Z,17.20
2022-12-09T21:48:52.746Z,17.23
2022-12-09T21:58:59.206Z,17.23
2022-12-09T22:09:02.886Z,17.37
2022-12-09T22:19:09.256Z,15.37
2022-12-09T22:29:13.766Z,15.10
2022-12-09T22:39:21.590Z,15.03
2022-12-09T22:49:25.376Z,15.07
2022-12-09T22:59:29.752Z,14.50
2022-12-09T23:09:32.827Z,13.73
2022-12-09T23:19:37.271Z,12.90
2022-12-09T23:29:40.494Z,12.07
2022-12-09T23:39:44.906Z,13.23
2022-12-09T23:49:47.965Z,13.40
2022-12-09T23:59:52.353Z,13.43
